createdAt,value
2023-04-16T00:01:24.559Z,102019.38
2023-04-16T00:03:54.382Z,102016.66
2023-04-16T00:06:24.359Z,102027.78
2023-04-16T00:08:52.763Z,102023.78
2023-04-16T00:11:21.064Z,102031.09
2023-04-16T00:13:49.398Z,102026.50
2023-04-16T00:16:17.691Z,102023.34
2023-04-16T00:18:46.568Z,102024.75
2023-04-16T00:21:16.273Z,102029.84
2023-04-16T00:23:44.545Z,102023.16
2023-04-16T00:26:12.736Z,102029.34
2023-04-16T00:28:41.652Z,102029.03
2023-04-16T00:31:10.013Z,102026.84
2023-04-16T00:33:38.346Z,102026.50
2023-04-16T00:36:07.445Z,102025.69
2023-04-16T00:38:37.128Z,102020.28
2023-04-16T00:41:05.449Z,102021.88
2023-04-16T00:43:33.684Z,102024.59
2023-04-16T00:46:02.252Z,102025.69
2023-04-16T00:48:32.368Z,102026.50
2023-04-16T00:51:01.688Z,102030.47
2023-04-16T00:53:30.736Z,102029.69
2023-04-16T00:56:00.776Z,102024.28
2023-04-16T00:58:29.898Z,102023.47
2023-04-16T01:00:58.561Z,102031.25
2023-04-16T01:03:39.499Z,102031.91
2023-04-16T01:06:08.833Z,102029.84
2023-04-16T01:08:37.208Z,102025.53
2023-04-16T01:11:07.591Z,102031.75
2023-04-16T01:13:39.261Z,102023.94
2023-04-16T01:16:08.388Z,102034.28
2023-04-16T01:18:37.718Z,102032.38
2023-04-16T01:21:08.047Z,102029.34
2023-04-16T01:23:36.629Z,102027.94
2023-04-16T01:26:04.963Z,102036.34
2023-04-16T01:28:33.290Z,102023.94
2023-04-16T01:31:01.789Z,102030.16
2023-04-16T01:33:30.086Z,102032.53
2023-04-16T01:35:58.349Z,102028.75
2023-04-16T01:38:27.999Z,102031.91
2023-04-16T01:40:59.432Z,102019.03
2023-04-16T01:43:27.941Z,102027.94
2023-04-16T01:46:13.725Z,102031.91
2023-04-16T01:48:42.018Z,102028.09
2023-04-16T01:51:10.450Z,102031.25
2023-04-16T01:53:40.182Z,102028.75
2023-04-16T01:56:08.814Z,102033.38
2023-04-16T01:58:37.308Z,102023.34
2023-04-16T02:01:06.839Z,102030.31
2023-04-16T02:03:35.569Z,102032.69
2023-04-16T02:06:04.062Z,102035.59
2023-04-16T02:08:32.317Z,102028.28
2023-04-16T02:11:02.706Z,102034.00
2023-04-16T02:13:30.900Z,102029.38
2023-04-16T02:15:59.336Z,102034.47
2023-04-16T02:18:27.688Z,102041.00
2023-04-16T02:20:55.963Z,102037.03
2023-04-16T02:23:24.210Z,102039.72
2023-04-16T02:25:52.482Z,102036.19
2023-04-16T02:28:22.077Z,102031.63
2023-04-16T02:30:50.247Z,102037.50
2023-04-16T02:33:18.508Z,102042.59
2023-04-16T02:35:48.615Z,102037.97
2023-04-16T02:38:16.819Z,102033.69
2023-04-16T02:40:45.114Z,102039.56
2023-04-16T02:43:13.365Z,102038.13
2023-04-16T02:45:43.413Z,102025.41
2023-04-16T02:48:11.733Z,102028.59
2023-04-16T02:50:39.935Z,102023.97
2023-04-16T02:53:08.162Z,102035.59
2023-04-16T02:55:36.330Z,102040.38
2023-04-16T02:58:04.611Z,102041.50
2023-04-16T03:00:32.883Z,102031.13
2023-04-16T03:03:02.580Z,102044.22
2023-04-16T03:05:30.885Z,102047.34
2023-04-16T03:07:59.106Z,102048.50
2023-04-16T03:10:27.429Z,102043.09
2023-04-16T03:12:55.747Z,102043.69
2023-04-16T03:15:24.204Z,102046.41
2023-04-16T03:17:52.555Z,102043.69
2023-04-16T03:20:22.299Z,102046.41
2023-04-16T03:22:52.240Z,102049.09
2023-04-16T03:25:20.806Z,102042.13
2023-04-16T03:27:49.024Z,102045.13
2023-04-16T03:30:17.526Z,102049.09
2023-04-16T03:32:46.131Z,102047.19
2023-04-16T03:35:14.445Z,102055.03
2023-04-16T03:37:44.093Z,102056.09
2023-04-16T03:40:13.321Z,102054.22
2023-04-16T03:42:41.567Z,102056.09
2023-04-16T03:45:10.753Z,102051.53
2023-04-16T03:47:39.181Z,102053.91
2023-04-16T03:50:08.374Z,102057.72
2023-04-16T03:52:36.653Z,102064.38
2023-04-16T03:55:07.784Z,102063.25
2023-04-16T03:57:35.888Z,102061.84
2023-04-16T04:00:04.577Z,102058.16
2023-04-16T04:02:32.892Z,102069.47
2023-04-16T04:05:01.257Z,102066.28
2023-04-16T04:07:29.547Z,102060.88
2023-04-16T04:09:57.997Z,102056.94
2023-04-16T04:12:27.645Z,102060.44
2023-04-16T04:14:56.010Z,102062.16
2023-04-16T04:17:24.238Z,102062.94
2023-04-16T04:20:00.866Z,102066.44
2023-04-16T04:22:29.860Z,102065.34
2023-04-16T04:24:58.091Z,102060.44
2023-04-16T04:27:27.786Z,102077.72
2023-04-16T04:29:56.018Z,102067.56
2023-04-16T04:32:24.400Z,102065.16
2023-04-16T04:34:52.718Z,102071.38
2023-04-16T04:37:21.075Z,102072.97
2023-04-16T04:39:49.509Z,102070.75
2023-04-16T04:42:19.384Z,102072.97
2023-04-16T04:44:49.425Z,102075.66
2023-04-16T04:47:17.686Z,102074.88
2023-04-16T04:49:45.917Z,102081.88
2023-04-16T04:52:14.613Z,102076.78
2023-04-16T04:54:43.288Z,102084.56
2023-04-16T04:57:11.532Z,102082.19
2023-04-16T04:59:39.789Z,102090.78
2023-04-16T05:02:09.456Z,102095.06
2023-04-16T05:04:37.852Z,102095.06
2023-04-16T05:07:06.648Z,102095.88
2023-04-16T05:09:34.999Z,102093.47
2023-04-16T05:12:03.600Z,102089.38
2023-04-16T05:14:31.913Z,102094.78
2023-04-16T05:17:00.335Z,102094.47
2023-04-16T05:19:30.130Z,102101.00
2023-04-16T05:21:58.308Z,102097.50
2023-04-16T05:24:26.695Z,102097.78
2023-04-16T05:26:54.891Z,102097.78
2023-04-16T05:29:23.114Z,102109.38
2023-04-16T05:31:51.642Z,102106.69
2023-04-16T05:34:19.989Z,102108.00
2023-04-16T05:36:49.574Z,102104.63
2023-04-16T05:39:18.796Z,102114.63
2023-04-16T05:41:47.072Z,102117.81
2023-04-16T05:44:15.868Z,102131.34
2023-04-16T05:46:44.449Z,102126.75
2023-04-16T05:49:12.815Z,102131.84
2023-04-16T05:51:41.150Z,102131.53
2023-04-16T05:54:10.757Z,102126.94
2023-04-16T05:56:39.047Z,102132.34
2023-04-16T05:59:07.416Z,102135.84
2023-04-16T06:01:35.986Z,102140.09
2023-04-16T06:04:04.398Z,102145.84
2023-04-16T06:06:32.937Z,102142.34
2023-04-16T06:09:01.269Z,102140.75
2023-04-16T06:11:31.243Z,102146.66
2023-04-16T06:13:59.640Z,102149.34
2023-04-16T06:16:27.977Z,102142.81
2023-04-16T06:18:56.275Z,102148.72
2023-04-16T06:21:26.157Z,102149.69
2023-04-16T06:23:55.781Z,102150.16
2023-04-16T06:26:24.218Z,102154.94
2023-04-16T06:28:53.852Z,102157.63
2023-04-16T06:31:22.252Z,102156.53
2023-04-16T06:33:50.548Z,102164.47
2023-04-16T06:36:18.902Z,102168.78
2023-04-16T06:38:47.234Z,102159.56
2023-04-16T06:41:15.790Z,102173.59
2023-04-16T06:43:44.093Z,102170.22
2023-04-16T06:46:13.763Z,102172.59
2023-04-16T06:48:42.112Z,102175.50
2023-04-16T06:51:10.323Z,102175.97
2023-04-16T06:53:38.975Z,102176.47
2023-04-16T06:56:08.312Z,102182.66
2023-04-16T06:58:36.712Z,102176.94
2023-04-16T07:01:05.650Z,102180.44
2023-04-16T07:03:35.692Z,102180.91
2023-04-16T07:06:04.323Z,102184.13
2023-04-16T07:08:32.585Z,102187.59
2023-04-16T07:11:01.126Z,102193.00
2023-04-16T07:13:29.704Z,102186.16
2023-04-16T07:15:58.100Z,102195.88
2023-04-16T07:18:26.539Z,102197.97
2023-04-16T07:20:56.220Z,102200.38
2023-04-16T07:23:24.844Z,102194.31
2023-04-16T07:25:53.174Z,102204.50
2023-04-16T07:28:21.630Z,102198.44
2023-04-16T07:30:51.303Z,102207.84
2023-04-16T07:33:19.678Z,102218.81
2023-04-16T07:35:48.142Z,102218.81
2023-04-16T07:38:17.905Z,102218.19
2023-04-16T07:40:46.327Z,102225.19
2023-04-16T07:43:16.403Z,102228.69
2023-04-16T07:45:44.768Z,102225.69
2023-04-16T07:48:13.070Z,102233.16
2023-04-16T07:50:43.550Z,102236.34
2023-04-16T07:53:12.041Z,102240.66
2023-04-16T07:55:41.689Z,102236.34
2023-04-16T07:58:10.318Z,102242.25
2023-04-16T08:00:39.490Z,102238.13
2023-04-16T08:03:07.916Z,102241.63
2023-04-16T08:05:36.335Z,102238.13
2023-04-16T08:08:04.746Z,102253.22
2023-04-16T08:10:33.025Z,102250.88
2023-04-16T08:13:03.519Z,102246.56
2023-04-16T08:15:32.482Z,102254.97
2023-04-16T08:18:00.818Z,102260.41
2023-04-16T08:20:29.295Z,102250.38
2023-04-16T08:22:57.593Z,102253.91
2023-04-16T08:25:25.868Z,102256.28
2023-04-16T08:27:54.087Z,102261.34
2023-04-16T08:30:23.899Z,102264.25
2023-04-16T08:32:52.423Z,102269.66
2023-04-16T08:35:20.676Z,102263.59
2023-04-16T08:37:48.946Z,102264.06
2023-04-16T08:40:17.545Z,102270.44
2023-04-16T08:42:52.801Z,102273.47
2023-04-16T08:45:21.227Z,102274.56
2023-04-16T08:47:53.116Z,102264.38
2023-04-16T08:50:26.090Z,102273.13
2023-04-16T08:52:58.322Z,102281.59
2023-04-16T08:55:35.410Z,102282.84
2023-04-16T08:58:09.991Z,102283.47
2023-04-16T09:00:41.037Z,102284.09
2023-04-16T09:03:11.369Z,102290.66
2023-04-16T09:05:40.964Z,102299.41
2023-04-16T09:08:09.612Z,102297.00
2023-04-16T09:10:37.940Z,102292.03
2023-04-16T09:13:06.288Z,102295.19
2023-04-16T09:15:36.735Z,102288.66
2023-04-16T09:18:05.372Z,102294.59
2023-04-16T09:20:36.450Z,102281.34
2023-04-16T09:23:04.792Z,102293.94
2023-04-16T09:25:36.464Z,102288.66
2023-04-16T09:28:05.178Z,102290.38
2023-04-16T09:30:35.742Z,102296.91
2023-04-16T09:33:22.843Z,102302.47
2023-04-16T09:35:54.270Z,102290.31
2023-04-16T09:38:22.802Z,102302.13
2023-04-16T09:41:08.410Z,102306.88
2023-04-16T09:43:36.698Z,102312.31
2023-04-16T09:46:08.020Z,102312.81
2023-04-16T09:48:36.861Z,102318.22
2023-04-16T09:51:08.261Z,102304.66
2023-04-16T09:53:36.879Z,102313.72
2023-04-16T09:56:08.563Z,102314.19
2023-04-16T09:58:38.783Z,102317.38
2023-04-16T10:01:10.879Z,102320.72
2023-04-16T10:03:41.300Z,102311.25
2023-04-16T10:06:18.078Z,102315.03
2023-04-16T10:08:50.290Z,102319.16
2023-04-16T10:11:19.743Z,102322.81
2023-04-16T10:13:48.361Z,102314.47
2023-04-16T10:16:17.711Z,102319.72
2023-04-16T10:18:48.490Z,102327.81
2023-04-16T10:21:18.395Z,102320.06
2023-04-16T10:23:47.362Z,102322.38
2023-04-16T10:26:16.615Z,102318.34
2023-04-16T10:28:47.153Z,102317.44
2023-04-16T10:31:16.113Z,102320.63
2023-04-16T10:33:46.331Z,102323.84
2023-04-16T10:36:17.914Z,102327.34
2023-04-16T10:38:48.620Z,102323.47
2023-04-16T10:41:17.184Z,102319.63
2023-04-16T10:43:48.204Z,102314.03
2023-04-16T10:46:21.550Z,102309.22
2023-04-16T10:48:52.113Z,102307.94
2023-04-16T10:51:31.515Z,102304.41
2023-04-16T10:54:05.787Z,102298.66
2023-04-16T10:56:37.283Z,102307.06
2023-04-16T10:59:08.015Z,102302.50
2023-04-16T11:01:39.253Z,102298.38
2023-04-16T11:04:39.387Z,102302.56
2023-04-16T11:07:19.314Z,102302.97
2023-04-16T11:09:53.932Z,102297.72
2023-04-16T11:12:24.047Z,102302.03
2023-04-16T11:14:53.671Z,102301.25
2023-04-16T11:17:22.895Z,102295.44
2023-04-16T11:19:53.525Z,102295.88
2023-04-16T11:22:23.820Z,102293.16
2023-04-16T11:24:56.725Z,102295.78
2023-04-16T11:27:25.695Z,102294.56
2023-04-16T11:30:01.964Z,102294.13
2023-04-16T11:32:34.018Z,102294.47
2023-04-16T11:35:04.810Z,102294.06
2023-04-16T11:37:38.042Z,102296.06
2023-04-16T11:40:09.630Z,102285.50
2023-04-16T11:42:40.484Z,102290.84
2023-04-16T11:45:11.818Z,102286.13
2023-04-16T11:47:50.410Z,102292.38
2023-04-16T11:50:21.520Z,102289.88
2023-04-16T11:52:51.898Z,102290.59
2023-04-16T11:55:21.085Z,102295.59
2023-04-16T11:57:49.820Z,102296.75
2023-04-16T12:00:22.996Z,102298.44
2023-04-16T12:02:55.073Z,102305.47
2023-04-16T12:05:33.762Z,102299.22
2023-04-16T12:08:06.005Z,102302.31
2023-04-16T12:10:36.576Z,102299.13
2023-04-16T12:13:15.130Z,102300.09
2023-04-16T12:15:51.137Z,102304.47
2023-04-16T12:18:22.480Z,102300.75
2023-04-16T12:20:51.914Z,102305.66
2023-04-16T12:23:30.101Z,102307.94
2023-04-16T12:26:02.542Z,102305.91
2023-04-16T12:28:33.904Z,102307.53
2023-04-16T12:31:02.406Z,102300.47
2023-04-16T12:33:31.252Z,102305.47
2023-04-16T12:35:59.645Z,102305.91
2023-04-16T12:38:30.213Z,102308.38
2023-04-16T12:40:58.646Z,102304.63
2023-04-16T12:43:27.664Z,102314.94
2023-04-16T12:45:56.303Z,102311.97
2023-04-16T12:48:24.716Z,102321.72
2023-04-16T12:50:55.677Z,102308.16
2023-04-16T12:53:24.198Z,102312.81
2023-04-16T12:55:53.919Z,102314.88
2023-04-16T12:58:22.188Z,102315.31
2023-04-16T13:00:50.515Z,102322.31
2023-04-16T13:03:20.898Z,102320.78
2023-04-16T13:05:49.727Z,102322.81
2023-04-16T13:08:18.138Z,102313.47
2023-04-16T13:10:46.441Z,102309.16
2023-04-16T13:13:16.529Z,102308.69
2023-04-16T13:15:44.873Z,102311.09
2023-04-16T13:18:13.360Z,102314.94
2023-04-16T13:20:41.665Z,102314.16
2023-04-16T13:23:10.048Z,102312.59
2023-04-16T13:25:38.474Z,102300.09
2023-04-16T13:28:07.191Z,102319.19
2023-04-16T13:30:36.844Z,102305.91
2023-04-16T13:33:05.428Z,102306.69
2023-04-16T13:35:33.834Z,102308.28
2023-04-16T13:38:02.084Z,102308.63
2023-04-16T13:40:33.435Z,102305.09
2023-04-16T13:43:01.806Z,102303.97
2023-04-16T13:45:33.337Z,102302.97
2023-04-16T13:48:03.804Z,102303.03
2023-04-16T13:50:32.128Z,102303.72
2023-04-16T13:53:00.784Z,102299.91
2023-04-16T13:55:29.321Z,102308.25
2023-04-16T13:57:57.635Z,102301.06
2023-04-16T14:00:27.652Z,102302.00
2023-04-16T14:02:56.749Z,102304.56
2023-04-16T14:05:27.297Z,102310.47
2023-04-16T14:07:55.784Z,102308.53
2023-04-16T14:10:24.112Z,102306.91
2023-04-16T14:12:52.690Z,102302.25
2023-04-16T14:15:21.357Z,102305.34
2023-04-16T14:17:49.783Z,102301.75
2023-04-16T14:20:18.285Z,102291.88
2023-04-16T14:22:47.963Z,102293.72
2023-04-16T14:25:16.743Z,102290.28
2023-04-16T14:27:45.122Z,102297.06
2023-04-16T14:30:14.071Z,102288.88
2023-04-16T14:32:42.416Z,102293.91
2023-04-16T14:35:10.965Z,102292.59
2023-04-16T14:37:39.518Z,102295.00
2023-04-16T14:40:12.296Z,102300.88
2023-04-16T14:42:40.823Z,102299.19
2023-04-16T14:45:11.121Z,102304.06
2023-04-16T14:47:45.762Z,102300.69
2023-04-16T14:50:15.763Z,102305.75
2023-04-16T14:52:44.237Z,102312.34
2023-04-16T14:55:13.933Z,102304.09
2023-04-16T14:57:42.532Z,102298.28
2023-04-16T15:00:13.442Z,102303.47
2023-04-16T15:02:43.090Z,102298.91
2023-04-16T15:05:11.808Z,102299.63
2023-04-16T15:07:40.176Z,102302.38
2023-04-16T15:10:10.785Z,102301.88
2023-04-16T15:12:40.688Z,102301.03
2023-04-16T15:15:11.483Z,102301.25
2023-04-16T15:17:39.991Z,102298.09
2023-04-16T15:20:10.641Z,102296.50
2023-04-16T15:22:39.303Z,102291.06
2023-04-16T15:25:09.105Z,102295.81
2023-04-16T15:27:37.676Z,102284.91
2023-04-16T15:30:09.355Z,102303.63
2023-04-16T15:32:37.735Z,102293.97
2023-04-16T15:35:07.054Z,102287.06
2023-04-16T15:37:36.260Z,102292.06
2023-04-16T15:40:05.741Z,102297.16
2023-04-16T15:42:34.208Z,102291.25
2023-04-16T15:45:02.692Z,102293.88
2023-04-16T15:47:32.461Z,102301.63
2023-04-16T15:50:00.925Z,102307.66
2023-04-16T15:52:30.133Z,102310.59
2023-04-16T15:54:58.415Z,102312.88
2023-04-16T15:57:26.821Z,102308.56
2023-04-16T16:00:06.382Z,102306.53
2023-04-16T16:02:38.498Z,102306.09
2023-04-16T16:05:09.451Z,102309.03
2023-04-16T16:07:38.107Z,102314.06
2023-04-16T16:10:07.843Z,102315.06
2023-04-16T16:12:36.321Z,102302.94
2023-04-16T16:15:06.485Z,102304.06
2023-04-16T16:17:36.701Z,102312.59
2023-04-16T16:20:06.863Z,102319.16
2023-04-16T16:22:35.218Z,102320.41
2023-04-16T16:25:03.610Z,102317.69
2023-04-16T16:27:32.020Z,102321.53
2023-04-16T16:30:00.893Z,102323.38
2023-04-16T16:32:29.382Z,102323.25
2023-04-16T16:34:59.430Z,102324.28
2023-04-16T16:37:27.895Z,102323.41
2023-04-16T16:39:56.196Z,102326.44
2023-04-16T16:42:24.531Z,102330.63
2023-04-16T16:44:53.948Z,102328.94
2023-04-16T16:47:24.490Z,102340.53
2023-04-16T16:49:54.747Z,102335.72
2023-04-16T16:52:26.700Z,102336.44
2023-04-16T16:54:56.757Z,102326.53
2023-04-16T16:57:25.609Z,102335.06
2023-04-16T16:59:54.486Z,102334.13
2023-04-16T17:02:23.248Z,102336.78
2023-04-16T17:04:52.810Z,102332.69
2023-04-16T17:07:21.250Z,102337.06
2023-04-16T17:09:51.018Z,102340.13
2023-04-16T17:12:19.321Z,102347.69
2023-04-16T17:14:51.584Z,102339.78
2023-04-16T17:17:20.107Z,102338.72
2023-04-16T17:19:48.491Z,102345.50
2023-04-16T17:22:16.911Z,102350.84
2023-04-16T17:24:45.236Z,102355.31
2023-04-16T17:27:14.982Z,102341.06
2023-04-16T17:29:43.438Z,102350.22
2023-04-16T17:32:11.834Z,102343.38
2023-04-16T17:34:40.609Z,102362.16
2023-04-16T17:37:09.095Z,102360.75
2023-04-16T17:39:37.289Z,102353.16
2023-04-16T17:42:05.759Z,102352.34
2023-04-16T17:44:35.419Z,102357.78
2023-04-16T17:47:03.777Z,102359.53
2023-04-16T17:49:32.278Z,102359.75
2023-04-16T17:52:00.687Z,102357.69
2023-04-16T17:54:29.081Z,102365.41
2023-04-16T17:56:58.582Z,102360.28
2023-04-16T17:59:27.421Z,102353.94
2023-04-16T18:01:57.322Z,102355.84
2023-04-16T18:04:26.017Z,102370.53
2023-04-16T18:06:54.449Z,102364.63
2023-04-16T18:09:22.745Z,102375.41
2023-04-16T18:11:51.123Z,102377.94
2023-04-16T18:14:21.672Z,102380.66
2023-04-16T18:16:50.460Z,102382.25
2023-04-16T18:19:20.124Z,102387.69
2023-04-16T18:21:48.621Z,102384.50
2023-04-16T18:24:16.950Z,102378.94
2023-04-16T18:26:47.052Z,102383.56
2023-04-16T18:29:17.796Z,102379.59
2023-04-16T18:31:46.571Z,102384.22
2023-04-16T18:34:14.994Z,102382.66
2023-04-16T18:36:44.967Z,102385.69
2023-04-16T18:39:13.265Z,102389.53
2023-04-16T18:41:42.543Z,102384.88
2023-04-16T18:44:11.049Z,102385.22
2023-04-16T18:46:39.384Z,102389.84
2023-04-16T18:49:07.790Z,102396.41
2023-04-16T18:51:36.157Z,102405.66
2023-04-16T18:54:05.969Z,102397.84
2023-04-16T18:56:34.279Z,102404.41
2023-04-16T18:59:02.682Z,102399.31
2023-04-16T19:01:31.063Z,102393.41
2023-04-16T19:03:59.376Z,102394.53
2023-04-16T19:06:27.898Z,102400.94
2023-04-16T19:08:56.278Z,102398.22
2023-04-16T19:11:26.056Z,102402.38
2023-04-16T19:13:54.407Z,102408.00
2023-04-16T19:16:22.763Z,102416.31
2023-04-16T19:18:51.500Z,102409.31
2023-04-16T19:21:19.789Z,102418.09
2023-04-16T19:23:49.011Z,102412.19
2023-04-16T19:26:17.796Z,102415.88
2023-04-16T19:28:47.698Z,102417.34
2023-04-16T19:31:16.352Z,102429.16
2023-04-16T19:33:44.704Z,102428.69
2023-04-16T19:36:13.094Z,102426.16
2023-04-16T19:38:41.449Z,102428.22
2023-04-16T19:41:09.977Z,102423.44
2023-04-16T19:43:38.266Z,102424.06
2023-04-16T19:46:08.131Z,102430.97
2023-04-16T19:48:36.421Z,102433.69
2023-04-16T19:51:05.730Z,102444.03
2023-04-16T19:53:34.816Z,102440.03
2023-04-16T19:56:03.331Z,102443.09
2023-04-16T19:58:31.676Z,102439.09
2023-04-16T20:01:00.041Z,102437.19
2023-04-16T20:03:29.760Z,102439.09
2023-04-16T20:05:58.047Z,102438.31
2023-04-16T20:08:26.562Z,102434.94
2023-04-16T20:10:55.101Z,102441.16
2023-04-16T20:13:23.544Z,102439.25
2023-04-16T20:15:53.892Z,102446.59
2023-04-16T20:18:22.372Z,102448.50
2023-04-16T20:20:52.051Z,102444.34
2023-04-16T20:23:20.398Z,102441.66
2023-04-16T20:25:49.067Z,102440.03
2023-04-16T20:28:21.390Z,102445.47
2023-04-16T20:30:50.805Z,102442.44
2023-04-16T20:33:19.258Z,102442.75
2023-04-16T20:35:49.092Z,102446.28
2023-04-16T20:38:23.934Z,102446.28
2023-04-16T20:40:58.190Z,102442.28
2023-04-16T20:43:29.790Z,102441.81
2023-04-16T20:45:58.373Z,102451.06
2023-04-16T20:48:26.882Z,102438.94
2023-04-16T20:51:00.253Z,102451.72
2023-04-16T20:53:30.173Z,102448.84
2023-04-16T20:56:00.140Z,102453.00
2023-04-16T20:58:28.922Z,102443.91
2023-04-16T21:00:58.535Z,102446.94
2023-04-16T21:03:29.025Z,102439.41
2023-04-16T21:05:57.583Z,102447.09
2023-04-16T21:08:26.071Z,102449.63
2023-04-16T21:10:56.061Z,102444.53
2023-04-16T21:13:24.394Z,102439.09
2023-04-16T21:15:53.171Z,102442.16
2023-04-16T21:18:21.462Z,102447.09
2023-04-16T21:20:52.229Z,102445.47
2023-04-16T21:23:20.471Z,102453.13
2023-04-16T21:25:48.987Z,102448.81
2023-04-16T21:28:18.642Z,102454.09
2023-04-16T21:30:46.920Z,102446.28
2023-04-16T21:33:16.675Z,102440.38
2023-04-16T21:35:44.957Z,102453.47
2023-04-16T21:38:13.162Z,102438.63
2023-04-16T21:40:41.535Z,102455.69
2023-04-16T21:43:09.775Z,102449.47
2023-04-16T21:45:39.827Z,102448.97
2023-04-16T21:48:08.496Z,102446.59
2023-04-16T21:50:36.835Z,102443.06
2023-04-16T21:53:06.396Z,102442.28
2023-04-16T21:55:35.853Z,102449.47
2023-04-16T21:58:05.042Z,102446.75
2023-04-16T22:00:33.790Z,102443.84
2023-04-16T22:03:04.374Z,102443.06
2023-04-16T22:05:33.236Z,102448.03
2023-04-16T22:08:08.223Z,102444.00
2023-04-16T22:10:49.518Z,102441.59
2023-04-16T22:13:17.970Z,102440.03
2023-04-16T22:15:46.421Z,102440.03
2023-04-16T22:18:16.110Z,102437.00
2023-04-16T22:20:47.136Z,102434.28
2023-04-16T22:23:15.777Z,102447.03
2023-04-16T22:25:44.208Z,102431.91
2023-04-16T22:28:12.993Z,102436.84
2023-04-16T22:30:41.265Z,102434.94
2023-04-16T22:33:09.555Z,102433.63
2023-04-16T22:35:39.168Z,102425.81
2023-04-16T22:38:07.718Z,102433.50
2023-04-16T22:40:36.043Z,102447.81
2023-04-16T22:43:04.314Z,102437.47
2023-04-16T22:45:32.706Z,102433.94
2023-04-16T22:48:01.172Z,102427.75
2023-04-16T22:50:31.401Z,102419.97
2023-04-16T22:53:01.251Z,102431.56
2023-04-16T22:55:29.498Z,102425.38
2023-04-16T22:57:57.720Z,102429.66
2023-04-16T23:00:25.985Z,102427.41
2023-04-16T23:02:54.414Z,102425.81
2023-04-16T23:05:23.026Z,102419.59
2023-04-16T23:07:51.345Z,102409.56
2023-04-16T23:10:20.954Z,102422.00
2023-04-16T23:12:49.178Z,102418.81
2023-04-16T23:15:17.547Z,102421.19
2023-04-16T23:17:46.668Z,102424.22
2023-04-16T23:20:15.672Z,102424.72
2023-04-16T23:22:44.033Z,102425.22
2023-04-16T23:25:12.474Z,102425.22
2023-04-16T23:27:42.043Z,102418.19
2023-04-16T23:30:11.437Z,102419.00
2023-04-16T23:32:39.728Z,102421.72
2023-04-16T23:35:09.827Z,102436.06
2023-04-16T23:37:38.173Z,102426.31
2023-04-16T23:40:08.351Z,102428.22
2023-04-16T23:42:36.717Z,102435.25
2023-04-16T23:45:07.561Z,102426.63
2023-04-16T23:47:35.801Z,102421.53
2023-04-16T23:50:04.416Z,102421.88
2023-04-16T23:52:32.709Z,102420.28
2023-04-16T23:55:00.964Z,102424.38
2023-04-16T23:57:29.198Z,102434.72
2023-04-16T23:59:57.464Z,102430.75
